createdAt,value
2022-09-02T00:01:34.164Z,98.56
2022-09-02T00:06:34.777Z,99.25
2022-09-02T00:11:35.562Z,99.01
2022-09-02T00:16:34.114Z,99.53
2022-09-02T00:21:34.927Z,99.87
2022-09-02T00:26:33.237Z,99.55
2022-09-02T00:31:33.821Z,99.93
2022-09-02T00:36:34.225Z,99.42
2022-09-02T00:41:32.602Z,99.21
2022-09-02T00:46:33.164Z,99.36
2022-09-02T00:51:42.562Z,98.96
2022-09-02T00:56:44.821Z,99.04
2022-09-02T01:01:43.141Z,98.55
2022-09-02T01:06:45.513Z,98.63
2022-09-02T01:11:49.639Z,96.82
2022-09-02T01:16:50.730Z,96.92
2022-09-02T01:21:51.195Z,97.05
2022-09-02T01:26:50.018Z,96.28
2022-09-02T01:31:48.585Z,97.86
2022-09-02T01:36:46.970Z,96.55
2022-09-02T01:41:46.588Z,97.00
2022-09-02T01:46:45.397Z,96.80
2022-09-02T01:51:44.118Z,95.59
2022-09-02T01:56:42.403Z,95.77
2022-09-02T02:01:41.963Z,94.53
2022-09-02T02:06:43.753Z,93.53
2022-09-02T02:11:42.228Z,92.40
2022-09-02T02:16:42.329Z,88.79
2022-09-02T02:21:40.643Z,85.80
2022-09-02T02:26:38.933Z,86.03
2022-09-02T02:31:39.498Z,82.76
2022-09-02T02:36:41.118Z,82.65
2022-09-02T02:41:40.320Z,81.78
2022-09-02T02:46:43.714Z,81.75
2022-09-02T02:51:44.502Z,81.99
2022-09-02T02:56:42.978Z,80.83
2022-09-02T03:01:41.399Z,78.97
2022-09-02T03:06:39.993Z,78.86
2022-09-02T03:11:39.599Z,77.34
2022-09-02T03:16:38.697Z,77.92
2022-09-02T03:21:39.216Z,76.83
2022-09-02T03:26:42.725Z,77.18
2022-09-02T03:31:42.642Z,75.62
2022-09-02T03:36:44.233Z,76.62
2022-09-02T03:41:46.906Z,74.59
2022-09-02T03:46:46.155Z,75.50
2022-09-02T03:51:44.954Z,75.27
2022-09-02T03:56:43.766Z,75.71
2022-09-02T04:01:44.967Z,75.76
2022-09-02T04:06:43.201Z,75.04
2022-09-02T04:11:43.205Z,74.48
2022-09-02T04:16:44.517Z,75.04
2022-09-02T04:21:43.186Z,74.34
2022-09-02T04:26:44.835Z,73.87
2022-09-02T04:31:47.444Z,73.23
2022-09-02T04:36:45.703Z,72.08
2022-09-02T04:41:45.421Z,70.79
2022-09-02T04:46:45.355Z,69.97
2022-09-02T04:51:50.420Z,69.29
2022-09-02T04:56:49.049Z,67.55
2022-09-02T05:01:50.360Z,68.07
2022-09-02T05:06:54.752Z,67.31
2022-09-02T05:11:57.443Z,66.56
2022-09-02T05:16:58.286Z,66.77
2022-09-02T05:21:59.316Z,66.62
2022-09-02T05:27:07.783Z,65.91
2022-09-02T05:32:08.263Z,65.40
2022-09-02T05:37:10.391Z,63.78
2022-09-02T05:42:08.951Z,64.80
2022-09-02T05:47:07.548Z,62.74
2022-09-02T05:52:10.289Z,60.14
2022-09-02T05:57:18.713Z,59.66
2022-09-02T06:02:30.146Z,58.29
2022-09-02T06:07:28.950Z,56.60
2022-09-02T06:12:33.239Z,55.71
2022-09-02T06:17:31.901Z,54.88
2022-09-02T06:22:32.757Z,53.25
2022-09-02T06:27:33.648Z,54.30
2022-09-02T06:32:33.072Z,52.46
2022-09-02T06:37:35.635Z,50.34
2022-09-02T06:42:36.286Z,49.52
2022-09-02T06:47:50.915Z,48.91
2022-09-02T06:52:50.106Z,49.32
2022-09-02T06:57:50.829Z,48.13
2022-09-02T07:03:11.301Z,47.80
2022-09-02T07:08:10.472Z,46.41
2022-09-02T07:13:10.318Z,45.08
2022-09-02T07:18:08.746Z,45.07
2022-09-02T07:23:08.452Z,45.92
2022-09-02T07:28:07.449Z,45.92
2022-09-02T07:33:08.614Z,46.47
2022-09-02T07:38:08.229Z,44.99
2022-09-02T07:43:10.205Z,45.65
2022-09-02T07:48:10.471Z,44.47
2022-09-02T07:53:09.741Z,45.71
2022-09-02T07:58:12.081Z,45.42
2022-09-02T08:03:16.814Z,45.77
2022-09-02T08:08:22.042Z,47.48
2022-09-02T08:13:20.499Z,46.73
2022-09-02T08:18:22.653Z,46.00
2022-09-02T08:23:35.942Z,46.22
2022-09-02T08:28:35.884Z,44.83
2022-09-02T08:33:35.475Z,44.17
2022-09-02T08:38:33.659Z,44.17
2022-09-02T08:43:40.294Z,43.07
2022-09-02T08:48:45.357Z,44.11
2022-09-02T08:53:51.386Z,42.79
2022-09-02T08:58:56.238Z,42.54
2022-09-02T09:04:12.643Z,42.38
2022-09-02T09:09:22.794Z,43.30
2022-09-02T09:14:30.194Z,43.59
2022-09-02T09:19:41.822Z,41.60
2022-09-02T09:24:42.692Z,41.56
2022-09-02T09:29:41.106Z,39.27
2022-09-02T09:35:07.283Z,38.88
2022-09-02T09:40:26.731Z,36.43
2022-09-02T09:45:32.370Z,37.56
2022-09-02T09:50:32.192Z,37.39
2022-09-02T09:55:30.374Z,38.35
2022-09-02T10:00:32.992Z,37.44
2022-09-02T10:05:36.962Z,36.12
2022-09-02T10:10:35.764Z,35.75
2022-09-02T10:15:44.826Z,37.63
2022-09-02T10:31:33.529Z,38.20
2022-09-02T10:36:38.061Z,38.16
2022-09-02T10:46:54.713Z,38.12
2022-09-02T10:52:05.570Z,37.72
2022-09-02T10:57:11.013Z,37.92
2022-09-02T11:02:17.547Z,39.04
2022-09-02T11:07:23.353Z,38.82
2022-09-02T11:12:27.981Z,38.52
2022-09-02T11:17:31.478Z,39.06
2022-09-02T11:22:39.499Z,40.15
2022-09-02T11:27:45.403Z,40.11
2022-09-02T11:32:51.574Z,40.77
2022-09-02T11:37:57.610Z,39.80
2022-09-02T11:43:08.891Z,39.99
2022-09-02T11:48:37.390Z,40.35
2022-09-02T11:53:41.605Z,40.94
2022-09-02T11:58:41.957Z,40.75
2022-09-02T12:04:15.855Z,40.08
2022-09-02T12:09:14.186Z,41.42
2022-09-02T12:14:35.181Z,45.35
2022-09-02T12:19:43.745Z,48.01
2022-09-02T12:24:53.417Z,48.89
2022-09-02T12:29:52.439Z,49.43
2022-09-02T12:35:07.912Z,51.57
2022-09-02T12:40:16.597Z,52.87
2022-09-02T12:45:28.298Z,54.48
2022-09-02T12:50:32.542Z,55.29
2022-09-02T12:55:34.110Z,56.14
2022-09-02T13:00:40.128Z,60.58
2022-09-02T13:05:51.848Z,82.53
2022-09-02T13:11:23.502Z,90.44
2022-09-02T13:16:34.597Z,93.67
2022-09-02T13:21:56.347Z,97.40
2022-09-02T13:27:33.693Z,96.98
2022-09-02T13:32:34.123Z,100.00
2022-09-02T13:37:36.755Z,100.00
2022-09-02T13:42:37.353Z,100.00
2022-09-02T13:47:36.612Z,100.00
2022-09-02T13:53:34.677Z,100.00
2022-09-02T13:58:01.306Z,100.00
2022-09-02T14:03:02.726Z,100.00
2022-09-02T14:08:04.342Z,100.00
2022-09-02T14:13:05.326Z,100.00
2022-09-02T14:18:18.362Z,100.00
2022-09-02T14:23:17.970Z,100.00
2022-09-02T14:28:24.255Z,100.00
2022-09-02T14:33:28.357Z,100.00
2022-09-02T14:38:28.897Z,100.00
2022-09-02T14:43:30.260Z,100.00
2022-09-02T14:48:28.666Z,100.00
2022-09-02T14:53:26.926Z,100.00
2022-09-02T14:58:27.036Z,100.00
2022-09-02T15:03:27.689Z,100.00
2022-09-02T15:08:26.054Z,100.00
2022-09-02T15:13:29.410Z,100.00
2022-09-02T15:18:30.045Z,100.00
2022-09-02T15:23:32.579Z,100.00
2022-09-02T15:28:32.958Z,100.00
2022-09-02T15:33:33.038Z,100.00
2022-09-02T15:38:31.201Z,100.00
2022-09-02T15:43:29.401Z,100.00
2022-09-02T15:48:28.285Z,100.00
2022-09-02T15:53:28.092Z,100.00
2022-09-02T15:58:26.261Z,100.00
2022-09-02T16:03:24.624Z,100.00
2022-09-02T16:08:23.162Z,100.00
2022-09-02T16:13:23.095Z,100.00
2022-09-02T16:18:21.499Z,100.00
2022-09-02T16:23:19.749Z,100.00
2022-09-02T16:28:17.986Z,100.00
2022-09-02T16:33:17.440Z,100.00
2022-09-02T16:38:16.001Z,100.00
2022-09-02T16:43:14.498Z,100.00
2022-09-02T16:48:12.734Z,100.00
2022-09-02T16:53:12.598Z,100.00
2022-09-02T16:58:11.763Z,100.00
2022-09-02T17:03:11.900Z,100.00
2022-09-02T17:08:11.509Z,100.00
2022-09-02T17:13:09.637Z,100.00
2022-09-02T17:18:07.993Z,100.00
2022-09-02T17:23:06.249Z,100.00
2022-09-02T17:28:05.917Z,100.00
2022-09-02T17:33:05.166Z,100.00
2022-09-02T17:38:03.460Z,100.00
2022-09-02T17:43:02.147Z,100.00
2022-09-02T17:48:19.063Z,100.00
2022-09-02T17:53:19.943Z,100.00
2022-09-02T17:58:21.607Z,100.00
2022-09-02T18:03:43.461Z,100.00
2022-09-02T18:08:52.062Z,100.00
2022-09-02T18:13:56.778Z,100.00
2022-09-02T18:19:13.185Z,100.00
2022-09-02T18:24:19.542Z,100.00
2022-09-02T18:29:32.683Z,100.00
2022-09-02T18:34:44.355Z,100.00
2022-09-02T18:40:01.990Z,100.00
2022-09-02T18:45:08.898Z,100.00
2022-09-02T18:50:22.109Z,100.00
2022-09-02T18:55:35.145Z,100.00
2022-09-02T19:00:46.570Z,100.00
2022-09-02T19:05:46.621Z,100.00
2022-09-02T19:10:44.806Z,100.00
2022-09-02T19:15:43.368Z,100.00
2022-09-02T19:20:42.254Z,100.00
2022-09-02T19:25:44.693Z,100.00
2022-09-02T19:30:43.137Z,100.00
2022-09-02T19:35:46.567Z,100.00
2022-09-02T19:40:49.608Z,100.00
2022-09-02T19:45:51.415Z,100.00
2022-09-02T19:50:49.886Z,100.00
2022-09-02T19:55:51.213Z,100.00
2022-09-02T20:00:49.631Z,100.00
2022-09-02T20:05:49.952Z,100.00
2022-09-02T20:10:56.509Z,100.00
2022-09-02T20:15:55.555Z,100.00
2022-09-02T20:20:57.930Z,100.00
2022-09-02T20:26:17.511Z,100.00
2022-09-02T20:31:23.141Z,100.00
2022-09-02T20:36:29.400Z,100.00
2022-09-02T20:41:38.290Z,100.00
2022-09-02T20:46:52.555Z,100.00
2022-09-02T20:51:57.617Z,100.00
2022-09-02T20:57:09.414Z,100.00
2022-09-02T21:02:10.743Z,100.00
2022-09-02T21:07:14.590Z,100.00
2022-09-02T21:12:32.438Z,100.00
2022-09-02T21:17:40.135Z,100.00
2022-09-02T21:22:44.437Z,100.00
2022-09-02T21:27:50.111Z,100.00
2022-09-02T21:32:51.781Z,100.00
2022-09-02T21:37:52.710Z,100.00
2022-09-02T21:43:16.386Z,100.00
2022-09-02T21:48:33.825Z,100.00
2022-09-02T21:53:53.689Z,100.00
2022-09-02T21:59:15.591Z,100.00
2022-09-02T22:04:31.558Z,100.00
2022-09-02T22:09:33.004Z,100.00
2022-09-02T22:14:38.293Z,100.00
2022-09-02T22:19:40.462Z,100.00
2022-09-02T22:24:40.572Z,100.00
2022-09-02T22:29:46.821Z,100.00
2022-09-02T22:34:50.953Z,100.00
2022-09-02T22:39:51.908Z,100.00
2022-09-02T22:45:18.357Z,100.00
2022-09-02T22:50:37.210Z,100.00
2022-09-02T22:55:47.183Z,100.00
2022-09-02T23:00:50.246Z,100.00
2022-09-02T23:06:01.244Z,100.00
2022-09-02T23:11:07.261Z,100.00
2022-09-02T23:16:14.275Z,100.00
2022-09-02T23:21:21.351Z,100.00
2022-09-02T23:26:31.885Z,100.00
2022-09-02T23:31:58.948Z,100.00
2022-09-02T23:37:06.853Z,100.00
2022-09-02T23:42:05.417Z,100.00
2022-09-02T23:47:19.798Z,100.00
2022-09-02T23:52:27.385Z,100.00
2022-09-02T23:57:46.509Z,100.00
